createdAt,value
2022-09-14T00:01:37.005Z,13.20
2022-09-14T00:04:07.862Z,13.60
2022-09-14T00:06:36.121Z,14.32
2022-09-14T00:09:06.811Z,12.73
2022-09-14T00:11:37.927Z,13.27
2022-09-14T00:14:06.910Z,13.75
2022-09-14T00:16:37.117Z,12.93
2022-09-14T00:19:20.323Z,13.32
2022-09-14T00:21:52.471Z,13.48
2022-09-14T00:24:20.536Z,12.65
2022-09-14T00:26:49.816Z,13.23
2022-09-14T00:29:18.020Z,12.02
2022-09-14T00:31:46.165Z,12.82
2022-09-14T00:34:16.808Z,12.43
2022-09-14T00:36:47.307Z,12.55
2022-09-14T00:39:17.610Z,11.68
2022-09-14T00:41:48.638Z,12.50
2022-09-14T00:44:54.889Z,12.52
2022-09-14T00:47:24.537Z,11.40
2022-09-14T00:49:52.529Z,12.35
2022-09-14T00:52:23.848Z,12.38
2022-09-14T00:54:54.208Z,12.48
2022-09-14T00:57:23.081Z,12.13
2022-09-14T00:59:52.806Z,12.23
2022-09-14T01:02:22.993Z,11.57
2022-09-14T01:04:53.473Z,11.80
2022-09-14T01:07:32.819Z,11.48
2022-09-14T01:10:07.107Z,12.20
2022-09-14T01:12:41.330Z,11.30
2022-09-14T01:15:15.405Z,12.40
2022-09-14T01:17:51.565Z,12.30
2022-09-14T01:20:27.101Z,11.15
2022-09-14T01:23:05.942Z,10.15
2022-09-14T01:26:01.079Z,11.02
2022-09-14T01:28:36.155Z,10.85
2022-09-14T01:31:11.608Z,11.50
2022-09-14T01:33:47.322Z,10.00
2022-09-14T01:36:20.327Z,11.45
2022-09-14T01:38:52.151Z,11.80
2022-09-14T01:41:24.695Z,10.65
2022-09-14T01:43:57.877Z,11.60
2022-09-14T01:46:34.468Z,10.63
2022-09-14T01:49:08.008Z,10.82
2022-09-14T01:51:41.217Z,11.07
2022-09-14T01:54:14.647Z,11.07
2022-09-14T01:56:49.720Z,10.27
2022-09-14T01:59:22.756Z,11.05
2022-09-14T02:01:54.778Z,10.60
2022-09-14T02:04:30.331Z,10.90
2022-09-14T02:06:58.491Z,11.00
2022-09-14T02:09:27.499Z,10.98
2022-09-14T02:12:00.584Z,11.00
2022-09-14T02:14:30.266Z,11.07
2022-09-14T02:16:58.563Z,10.93
2022-09-14T02:19:29.985Z,11.23
2022-09-14T02:21:57.932Z,11.38
2022-09-14T02:24:26.045Z,11.13
2022-09-14T02:26:56.041Z,10.35
2022-09-14T02:29:23.994Z,11.38
2022-09-14T02:32:05.646Z,10.82
2022-09-14T02:34:42.797Z,10.70
2022-09-14T02:37:14.463Z,9.95
2022-09-14T02:39:57.741Z,10.63
2022-09-14T02:42:34.709Z,10.65
2022-09-14T02:45:11.224Z,10.55
2022-09-14T02:47:49.156Z,11.02
2022-09-14T02:50:23.544Z,10.40
2022-09-14T02:52:58.601Z,10.63
2022-09-14T02:55:29.561Z,11.00
2022-09-14T02:58:05.864Z,10.73
2022-09-14T03:00:37.333Z,10.98
2022-09-14T03:03:08.453Z,9.55
2022-09-14T03:05:36.546Z,10.80
2022-09-14T03:08:05.434Z,9.30
2022-09-14T03:10:34.267Z,9.98
2022-09-14T03:13:02.196Z,10.13
2022-09-14T03:15:30.576Z,10.07
2022-09-14T03:17:58.518Z,9.90
2022-09-14T03:20:32.744Z,10.20
2022-09-14T03:23:01.448Z,9.57
2022-09-14T03:25:29.965Z,10.80
2022-09-14T03:28:00.116Z,10.02
2022-09-14T03:30:29.104Z,9.75
2022-09-14T03:32:57.143Z,10.57
2022-09-14T03:35:25.049Z,9.43
2022-09-14T03:37:54.361Z,9.35
2022-09-14T03:40:22.406Z,9.05
2022-09-14T03:42:52.304Z,9.35
2022-09-14T03:45:21.676Z,9.55
2022-09-14T03:47:49.897Z,9.45
2022-09-14T03:50:19.457Z,9.82
2022-09-14T03:52:47.713Z,10.00
2022-09-14T03:55:19.125Z,10.88
2022-09-14T03:57:47.023Z,9.93
2022-09-14T04:00:16.182Z,11.02
2022-09-14T04:02:45.615Z,11.18
2022-09-14T04:05:13.573Z,10.85
2022-09-14T04:07:41.462Z,11.18
2022-09-14T04:10:10.383Z,10.00
2022-09-14T04:12:40.129Z,11.23
2022-09-14T04:15:09.633Z,10.00
2022-09-14T04:17:37.536Z,9.82
2022-09-14T04:20:06.105Z,9.23
2022-09-14T04:22:34.871Z,10.45
2022-09-14T04:25:02.788Z,9.77
2022-09-14T04:27:31.194Z,9.13
2022-09-14T04:30:00.422Z,9.85
2022-09-14T04:32:33.532Z,8.93
2022-09-14T04:35:02.382Z,10.40
2022-09-14T04:37:32.048Z,8.85
2022-09-14T04:39:59.997Z,8.80
2022-09-14T04:42:27.916Z,9.60
2022-09-14T04:44:55.788Z,9.02
2022-09-14T04:47:25.055Z,9.85
2022-09-14T04:49:52.953Z,9.70
2022-09-14T04:52:21.952Z,11.23
2022-09-14T04:54:49.824Z,10.45
2022-09-14T04:57:17.729Z,10.48
2022-09-14T04:59:45.624Z,9.48
2022-09-14T05:02:13.633Z,9.68
2022-09-14T05:04:42.997Z,10.25
2022-09-14T05:07:10.926Z,11.88
2022-09-14T05:09:38.845Z,10.70
2022-09-14T05:12:07.389Z,11.35
2022-09-14T05:14:35.517Z,10.82
2022-09-14T05:17:04.445Z,10.70
2022-09-14T05:19:32.461Z,11.93
2022-09-14T05:22:01.697Z,10.30
2022-09-14T05:24:29.576Z,9.35
2022-09-14T05:27:01.021Z,9.90
2022-09-14T05:29:32.092Z,8.57
2022-09-14T05:32:00.231Z,8.48
2022-09-14T05:34:28.126Z,9.30
2022-09-14T05:36:56.021Z,9.75
2022-09-14T05:39:25.887Z,9.35
2022-09-14T05:41:54.207Z,10.90
2022-09-14T05:44:22.266Z,11.48
2022-09-14T05:46:50.334Z,8.90
2022-09-14T05:49:18.297Z,8.75
2022-09-14T05:51:46.201Z,7.82
2022-09-14T05:54:14.102Z,9.20
2022-09-14T05:56:43.373Z,7.72
2022-09-14T05:59:11.709Z,7.43
2022-09-14T06:01:39.658Z,7.88
2022-09-14T06:04:07.726Z,8.23
2022-09-14T06:06:35.851Z,7.90
2022-09-14T06:09:04.632Z,8.02
2022-09-14T06:11:36.134Z,8.48
2022-09-14T06:14:05.939Z,8.55
2022-09-14T06:16:34.193Z,7.22
2022-09-14T06:19:02.341Z,8.02
2022-09-14T06:21:31.965Z,7.88
2022-09-14T06:24:00.257Z,7.72
2022-09-14T06:26:28.359Z,7.45
2022-09-14T06:28:56.463Z,8.02
2022-09-14T06:31:25.903Z,7.40
2022-09-14T06:33:54.079Z,8.23
2022-09-14T06:36:24.912Z,8.27
2022-09-14T06:38:53.794Z,8.10
2022-09-14T06:41:23.593Z,7.53
2022-09-14T06:43:52.192Z,7.78
2022-09-14T06:46:21.819Z,6.82
2022-09-14T06:48:52.857Z,7.47
2022-09-14T06:51:22.893Z,7.63
2022-09-14T06:53:51.942Z,7.63
2022-09-14T06:56:20.092Z,7.15
2022-09-14T06:58:49.807Z,7.38
2022-09-14T07:01:20.346Z,6.88
2022-09-14T07:03:50.055Z,7.32
2022-09-14T07:06:21.038Z,6.85
2022-09-14T07:08:49.926Z,7.30
2022-09-14T07:11:20.069Z,6.78
2022-09-14T07:13:48.039Z,7.03
2022-09-14T07:16:16.873Z,6.25
2022-09-14T07:18:44.853Z,6.43
2022-09-14T07:21:14.248Z,6.10
2022-09-14T07:23:45.703Z,6.35
2022-09-14T07:26:15.465Z,6.72
2022-09-14T07:28:44.335Z,6.88
2022-09-14T07:31:17.354Z,6.00
2022-09-14T07:33:46.132Z,6.13
2022-09-14T07:36:15.085Z,6.05
2022-09-14T07:38:53.175Z,6.97
2022-09-14T07:41:22.699Z,6.32
2022-09-14T07:43:51.642Z,5.97
2022-09-14T07:46:20.538Z,6.07
2022-09-14T07:48:49.990Z,5.90
2022-09-14T07:51:17.932Z,6.32
2022-09-14T07:53:47.181Z,6.43
2022-09-14T07:56:16.473Z,6.82
2022-09-14T07:58:45.194Z,6.35
2022-09-14T08:01:14.903Z,6.10
2022-09-14T08:03:44.390Z,6.50
2022-09-14T08:06:14.341Z,5.97
2022-09-14T08:08:44.653Z,5.93
2022-09-14T08:11:15.500Z,6.43
2022-09-14T08:13:45.070Z,6.28
2022-09-14T08:16:13.765Z,6.45
2022-09-14T08:18:42.147Z,4.88
2022-09-14T08:21:13.599Z,5.35
2022-09-14T08:23:42.430Z,5.55
2022-09-14T08:26:13.603Z,5.32
2022-09-14T08:28:41.808Z,5.15
2022-09-14T08:31:12.862Z,5.82
2022-09-14T08:33:42.920Z,5.07
2022-09-14T08:36:13.107Z,5.40
2022-09-14T08:38:41.471Z,5.50
2022-09-14T08:41:27.264Z,5.70
2022-09-14T08:43:55.860Z,5.13
2022-09-14T08:46:30.815Z,4.78
2022-09-14T08:49:00.489Z,4.88
2022-09-14T08:51:29.117Z,5.32
2022-09-14T08:53:59.401Z,5.45
2022-09-14T08:56:33.622Z,4.60
2022-09-14T08:59:24.578Z,5.40
2022-09-14T09:02:01.819Z,4.65
2022-09-14T09:04:48.579Z,4.95
2022-09-14T09:07:22.853Z,5.53
2022-09-14T09:09:52.252Z,4.88
2022-09-14T09:12:23.411Z,5.13
2022-09-14T09:14:54.555Z,5.40
2022-09-14T09:17:26.070Z,4.80
2022-09-14T09:20:03.694Z,4.50
2022-09-14T09:22:39.125Z,4.28
2022-09-14T09:25:16.455Z,4.35
2022-09-14T09:27:47.517Z,4.20
2022-09-14T09:30:19.334Z,3.80
2022-09-14T09:32:47.507Z,3.90
2022-09-14T09:35:35.404Z,3.20
2022-09-14T09:38:15.941Z,3.40
2022-09-14T09:40:47.788Z,3.70
2022-09-14T09:43:33.596Z,3.25
2022-09-14T09:46:09.121Z,3.70
2022-09-14T09:48:42.786Z,3.53
2022-09-14T09:51:13.477Z,3.80
2022-09-14T09:53:49.157Z,4.00
2022-09-14T09:56:23.710Z,4.00
2022-09-14T09:58:53.427Z,3.50
2022-09-14T10:01:23.833Z,3.65
2022-09-14T10:04:03.828Z,4.03
2022-09-14T10:06:32.421Z,4.20
2022-09-14T10:09:00.529Z,4.07
2022-09-14T10:11:33.319Z,4.07
2022-09-14T10:14:02.945Z,3.90
2022-09-14T10:16:37.677Z,3.60
2022-09-14T10:19:14.881Z,3.80
2022-09-14T10:22:04.950Z,3.65
2022-09-14T10:24:35.249Z,3.42
2022-09-14T10:27:03.647Z,2.97
2022-09-14T10:29:38.717Z,3.15
2022-09-14T10:32:17.583Z,3.22
2022-09-14T10:34:45.637Z,3.00
2022-09-14T10:37:33.011Z,3.05
2022-09-14T10:40:15.594Z,3.40
2022-09-14T10:42:55.295Z,3.30
2022-09-14T10:45:31.410Z,3.80
2022-09-14T10:48:22.949Z,3.90
2022-09-14T10:50:59.162Z,4.10
2022-09-14T10:53:40.789Z,4.13
2022-09-14T10:56:14.983Z,4.70
2022-09-14T10:59:18.048Z,4.40
2022-09-14T11:02:11.880Z,4.25
2022-09-14T11:05:03.073Z,4.78
2022-09-14T11:07:45.131Z,4.70
2022-09-14T11:10:20.813Z,5.38
2022-09-14T11:13:01.558Z,5.40
2022-09-14T11:15:36.110Z,5.22
2022-09-14T11:18:19.102Z,5.82
2022-09-14T11:20:58.641Z,4.90
2022-09-14T11:23:39.683Z,5.85
2022-09-14T11:26:12.539Z,5.55
2022-09-14T11:28:44.540Z,5.65
2022-09-14T11:31:19.446Z,5.88
2022-09-14T11:33:53.725Z,5.40
2022-09-14T11:36:24.994Z,5.43
2022-09-14T11:38:57.862Z,4.65
2022-09-14T11:41:32.007Z,5.00
2022-09-14T11:44:04.870Z,5.85
2022-09-14T11:46:35.416Z,5.50
2022-09-14T11:49:14.826Z,6.55
2022-09-14T11:51:48.282Z,6.40
2022-09-14T11:54:18.280Z,6.40
2022-09-14T11:56:49.578Z,6.25
2022-09-14T11:59:51.228Z,7.35
2022-09-14T12:02:51.878Z,6.53
2022-09-14T12:05:35.881Z,6.50
2022-09-14T12:08:37.021Z,5.90
2022-09-14T12:11:28.663Z,5.80
2022-09-14T12:14:26.815Z,5.90
2022-09-14T12:17:38.876Z,5.47
2022-09-14T12:20:32.592Z,5.60
2022-09-14T12:23:14.754Z,4.60
2022-09-14T12:25:56.463Z,4.80
2022-09-14T12:28:30.444Z,4.82
2022-09-14T12:31:14.498Z,5.20
2022-09-14T12:33:58.107Z,5.18
2022-09-14T12:37:12.344Z,4.68
2022-09-14T12:40:24.724Z,4.88
2022-09-14T12:42:52.732Z,4.93
2022-09-14T12:45:50.450Z,5.28
2022-09-14T12:48:55.764Z,4.90
2022-09-14T12:51:32.568Z,5.50
2022-09-14T12:54:07.959Z,5.00
2022-09-14T12:56:42.811Z,5.68
2022-09-14T12:59:16.627Z,5.10
2022-09-14T13:01:53.155Z,5.55
2022-09-14T13:04:26.749Z,5.68
2022-09-14T13:06:57.026Z,5.32
2022-09-14T13:09:27.303Z,5.40
2022-09-14T13:11:59.202Z,5.32
2022-09-14T13:14:31.445Z,6.05
2022-09-14T13:17:01.234Z,6.60
2022-09-14T13:19:30.782Z,6.28
2022-09-14T13:22:01.572Z,5.70
2022-09-14T13:24:34.636Z,5.45
2022-09-14T13:27:04.821Z,5.45
2022-09-14T13:29:33.011Z,5.90
2022-09-14T13:32:04.123Z,5.85
2022-09-14T13:34:35.534Z,5.22
2022-09-14T13:37:05.176Z,5.00
2022-09-14T13:39:35.077Z,5.20
2022-09-14T13:42:05.939Z,5.50
2022-09-14T13:44:35.995Z,5.85
2022-09-14T13:47:06.846Z,6.30
2022-09-14T13:49:36.470Z,5.00
2022-09-14T13:52:49.602Z,5.47
2022-09-14T13:55:25.762Z,6.07
2022-09-14T13:58:13.040Z,5.95
2022-09-14T14:00:56.651Z,6.30
2022-09-14T14:03:34.336Z,6.53
2022-09-14T14:06:19.411Z,6.32
2022-09-14T14:08:54.902Z,6.60
2022-09-14T14:11:32.746Z,5.82
2022-09-14T14:14:21.704Z,6.53
2022-09-14T14:17:22.334Z,6.07
2022-09-14T14:19:52.768Z,6.93
2022-09-14T14:22:30.174Z,7.00
2022-09-14T14:25:14.534Z,5.70
2022-09-14T14:27:44.726Z,6.38
2022-09-14T14:30:18.089Z,7.10
2022-09-14T14:32:50.768Z,6.05
2022-09-14T14:35:22.325Z,6.35
2022-09-14T14:37:50.707Z,5.95
2022-09-14T14:40:19.735Z,6.03
2022-09-14T14:42:49.977Z,6.20
2022-09-14T14:45:21.743Z,6.68
2022-09-14T14:47:51.042Z,6.65
2022-09-14T14:50:21.882Z,6.75
2022-09-14T14:52:50.178Z,6.65
2022-09-14T14:55:18.213Z,6.57
2022-09-14T14:57:46.198Z,6.75
2022-09-14T15:00:16.415Z,6.20
2022-09-14T15:02:46.096Z,7.15
2022-09-14T15:05:14.233Z,6.93
2022-09-14T15:07:42.611Z,7.40
2022-09-14T15:10:14.389Z,7.47
2022-09-14T15:12:42.455Z,8.70
2022-09-14T15:15:13.770Z,8.45
2022-09-14T15:17:41.950Z,7.63
2022-09-14T15:20:12.161Z,8.13
2022-09-14T15:22:42.689Z,8.88
2022-09-14T15:25:12.096Z,8.45
2022-09-14T15:27:40.416Z,8.90
2022-09-14T15:30:10.350Z,8.55
2022-09-14T15:32:38.505Z,9.27
2022-09-14T15:35:07.762Z,7.85
2022-09-14T15:37:37.101Z,8.10
2022-09-14T15:40:06.259Z,7.85
2022-09-14T15:42:34.294Z,8.35
2022-09-14T15:45:02.570Z,8.80
2022-09-14T15:47:34.199Z,7.80
2022-09-14T15:50:06.598Z,9.15
2022-09-14T15:52:37.577Z,8.18
2022-09-14T15:55:06.828Z,8.05
2022-09-14T15:57:35.233Z,8.77
2022-09-14T16:00:06.166Z,10.13
2022-09-14T16:02:41.228Z,10.30
2022-09-14T16:05:09.774Z,10.82
2022-09-14T16:07:39.105Z,10.32
2022-09-14T16:10:08.734Z,9.95
2022-09-14T16:12:36.706Z,10.90
2022-09-14T16:15:05.032Z,11.93
2022-09-14T16:17:33.114Z,11.88
2022-09-14T16:20:01.108Z,11.45
2022-09-14T16:22:29.088Z,12.18
2022-09-14T16:24:58.450Z,12.65
2022-09-14T16:27:26.433Z,11.18
2022-09-14T16:29:54.436Z,11.80
2022-09-14T16:32:23.221Z,11.13
2022-09-14T16:34:51.201Z,11.38
2022-09-14T16:37:19.253Z,13.10
2022-09-14T16:39:49.041Z,12.27
2022-09-14T16:42:18.497Z,12.45
2022-09-14T16:44:47.592Z,12.10
2022-09-14T16:47:15.520Z,11.38
2022-09-14T16:49:43.453Z,11.10
2022-09-14T16:52:11.452Z,11.55
2022-09-14T16:54:39.366Z,10.00
2022-09-14T16:57:07.485Z,8.18
2022-09-14T16:59:36.712Z,6.75
2022-09-14T17:02:04.780Z,6.97
2022-09-14T17:04:32.808Z,5.95
2022-09-14T17:07:00.710Z,4.90
2022-09-14T17:09:30.155Z,3.63
2022-09-14T17:11:59.006Z,3.88
2022-09-14T17:14:29.256Z,4.03
2022-09-14T17:16:59.073Z,3.95
2022-09-14T17:19:27.560Z,3.83
2022-09-14T17:21:56.231Z,3.22
2022-09-14T17:24:25.790Z,4.45
2022-09-14T17:26:53.781Z,3.22
2022-09-14T17:29:21.704Z,2.80
2022-09-14T17:31:50.519Z,2.90
2022-09-14T17:34:20.102Z,3.00
2022-09-14T17:36:48.053Z,3.30
2022-09-14T17:39:16.581Z,3.67
2022-09-14T17:41:44.671Z,3.28
2022-09-14T17:44:14.144Z,3.10
2022-09-14T17:46:51.266Z,3.38
2022-09-14T17:49:22.793Z,3.60
2022-09-14T17:51:51.630Z,3.47
2022-09-14T17:54:20.598Z,3.10
2022-09-14T17:56:48.720Z,3.42
2022-09-14T17:59:19.836Z,3.28
2022-09-14T18:01:47.933Z,2.72
2022-09-14T18:04:16.764Z,2.20
2022-09-14T18:06:47.617Z,1.85
2022-09-14T18:09:17.509Z,1.70
2022-09-14T18:11:45.904Z,2.15
2022-09-14T18:14:14.441Z,1.88
2022-09-14T18:16:43.235Z,2.03
2022-09-14T18:19:11.181Z,1.80
2022-09-14T18:21:39.678Z,1.95
2022-09-14T18:24:10.509Z,1.70
2022-09-14T18:26:38.949Z,1.73
2022-09-14T18:29:06.932Z,1.90
2022-09-14T18:31:34.930Z,2.45
2022-09-14T18:34:02.968Z,3.08
2022-09-14T18:36:31.092Z,2.20
2022-09-14T18:38:59.095Z,2.17
2022-09-14T18:41:31.145Z,1.90
2022-09-14T18:43:59.747Z,2.10
2022-09-14T18:46:28.685Z,1.80
2022-09-14T18:48:58.477Z,1.98
2022-09-14T18:51:27.479Z,1.70
2022-09-14T18:53:59.011Z,1.77
2022-09-14T18:56:29.090Z,1.95
2022-09-14T18:58:57.853Z,2.20
2022-09-14T19:01:25.896Z,1.60
2022-09-14T19:03:55.853Z,2.30
2022-09-14T19:06:24.326Z,1.65
2022-09-14T19:08:52.580Z,2.42
2022-09-14T19:11:22.275Z,1.70
2022-09-14T19:13:56.799Z,1.48
2022-09-14T19:16:25.015Z,1.90
2022-09-14T19:18:53.248Z,1.70
2022-09-14T19:21:24.048Z,1.38
2022-09-14T19:24:00.139Z,1.67
2022-09-14T19:26:29.993Z,1.60
2022-09-14T19:29:00.798Z,1.90
2022-09-14T19:31:30.590Z,1.48
2022-09-14T19:33:58.908Z,1.80
2022-09-14T19:36:28.233Z,1.60
2022-09-14T19:38:57.933Z,1.27
2022-09-14T19:41:26.317Z,1.88
2022-09-14T19:43:54.289Z,1.40
2022-09-14T19:46:24.265Z,1.77
2022-09-14T19:48:53.112Z,1.80
2022-09-14T19:51:23.359Z,2.40
2022-09-14T19:53:52.937Z,1.95
2022-09-14T19:56:25.538Z,2.10
2022-09-14T19:58:55.071Z,1.73
2022-09-14T20:01:26.367Z,1.52
2022-09-14T20:03:55.362Z,1.55
2022-09-14T20:06:25.967Z,1.85
2022-09-14T20:08:58.168Z,1.92
2022-09-14T20:11:27.976Z,1.60
2022-09-14T20:13:57.450Z,1.67
2022-09-14T20:16:28.834Z,1.80
2022-09-14T20:18:57.980Z,1.60
2022-09-14T20:21:28.103Z,2.30
2022-09-14T20:24:15.165Z,1.92
2022-09-14T20:26:44.177Z,1.95
2022-09-14T20:29:12.510Z,2.47
2022-09-14T20:31:41.755Z,1.80
2022-09-14T20:34:10.069Z,2.40
2022-09-14T20:36:38.672Z,1.83
2022-09-14T20:39:07.067Z,2.17
2022-09-14T20:41:36.702Z,2.10
2022-09-14T20:44:05.135Z,2.58
2022-09-14T20:46:35.648Z,1.92
2022-09-14T20:49:07.568Z,2.30
2022-09-14T20:51:36.252Z,2.15
2022-09-14T20:54:05.010Z,2.80
2022-09-14T20:56:34.783Z,2.22
2022-09-14T20:59:06.037Z,2.28
2022-09-14T21:01:36.472Z,2.20
2022-09-14T21:04:09.487Z,2.58
2022-09-14T21:06:39.345Z,2.47
2022-09-14T21:09:08.169Z,2.55
2022-09-14T21:11:36.464Z,2.65
2022-09-14T21:14:04.881Z,2.53
2022-09-14T21:16:35.513Z,2.60
2022-09-14T21:19:08.962Z,2.45
2022-09-14T21:21:36.887Z,2.88
2022-09-14T21:24:07.337Z,2.65
2022-09-14T21:26:38.243Z,2.58
2022-09-14T21:29:10.026Z,2.85
2022-09-14T21:31:38.993Z,2.90
2022-09-14T21:34:10.163Z,2.90
2022-09-14T21:36:40.223Z,2.83
2022-09-14T21:39:10.345Z,2.90
2022-09-14T21:41:39.684Z,2.95
2022-09-14T21:44:08.097Z,3.10
2022-09-14T21:46:36.197Z,2.92
2022-09-14T21:49:04.144Z,3.03
2022-09-14T21:51:35.246Z,3.42
2022-09-14T21:54:04.961Z,3.40
2022-09-14T21:56:34.909Z,3.13
2022-09-14T21:59:05.627Z,3.13
2022-09-14T22:01:34.046Z,3.00
2022-09-14T22:04:03.339Z,2.90
2022-09-14T22:06:34.680Z,2.25
2022-09-14T22:09:03.051Z,2.90
2022-09-14T22:11:33.778Z,2.47
2022-09-14T22:14:03.551Z,2.90
2022-09-14T22:16:34.541Z,3.30
2022-09-14T22:19:04.844Z,3.08
2022-09-14T22:21:35.984Z,2.60
2022-09-14T22:24:06.853Z,2.97
2022-09-14T22:26:36.175Z,3.20
2022-09-14T22:29:05.352Z,3.38
2022-09-14T22:31:33.921Z,5.28
2022-09-14T22:34:01.813Z,6.35
2022-09-14T22:36:29.879Z,6.07
2022-09-14T22:39:00.448Z,4.88
2022-09-14T22:41:29.652Z,5.28
2022-09-14T22:43:57.828Z,4.93
2022-09-14T22:46:26.731Z,4.68
2022-09-14T22:48:54.881Z,4.90
2022-09-14T22:51:25.675Z,5.40
2022-09-14T22:53:53.888Z,5.43
2022-09-14T22:56:25.113Z,5.65
2022-09-14T22:58:53.454Z,4.57
2022-09-14T23:01:23.733Z,5.30
2022-09-14T23:03:57.031Z,4.82
2022-09-14T23:06:27.854Z,5.20
2022-09-14T23:08:56.293Z,4.68
2022-09-14T23:11:25.874Z,5.22
2022-09-14T23:13:54.335Z,4.72
2022-09-14T23:16:26.506Z,5.75
2022-09-14T23:18:57.386Z,5.55
2022-09-14T23:21:25.527Z,5.20
2022-09-14T23:23:54.277Z,4.55
2022-09-14T23:26:23.067Z,4.97
2022-09-14T23:28:57.836Z,5.22
2022-09-14T23:31:26.341Z,5.15
2022-09-14T23:33:56.111Z,5.60
2022-09-14T23:36:25.304Z,5.40
2022-09-14T23:38:53.877Z,5.50
2022-09-14T23:41:23.900Z,5.20
2022-09-14T23:43:52.680Z,5.80
2022-09-14T23:46:23.529Z,5.35
2022-09-14T23:48:51.898Z,5.70
2022-09-14T23:51:20.099Z,5.75
2022-09-14T23:53:48.312Z,5.90
2022-09-14T23:56:16.657Z,5.95
2022-09-14T23:58:44.605Z,4.97
